sensor_id;sensor_type;location;lat;lon;timestamp;temperature;humidity
14755;DHT22;7469;50.906;6.952;2023-02-28T00:01:07;1.30;94.90
14755;DHT22;7469;50.906;6.952;2023-02-28T00:03:35;1.30;95.20
14755;DHT22;7469;50.906;6.952;2023-02-28T00:06:06;1.30;95.60
14755;DHT22;7469;50.906;6.952;2023-02-28T00:08:34;1.30;95.70
14755;DHT22;7469;50.906;6.952;2023-02-28T00:11:02;1.20;95.80
14755;DHT22;7469;50.906;6.952;2023-02-28T00:13:31;1.20;96.00
14755;DHT22;7469;50.906;6.952;2023-02-28T00:16:00;1.20;96.10
14755;DHT22;7469;50.906;6.952;2023-02-28T00:18:28;1.20;96.20
14755;DHT22;7469;50.906;6.952;2023-02-28T00:20:57;1.20;96.40
14755;DHT22;7469;50.906;6.952;2023-02-28T00:23:27;1.20;96.40
14755;DHT22;7469;50.906;6.952;2023-02-28T00:25:55;1.10;96.70
14755;DHT22;7469;50.906;6.952;2023-02-28T00:28:23;1.10;96.80
14755;DHT22;7469;50.906;6.952;2023-02-28T00:30:51;1.10;96.90
14755;DHT22;7469;50.906;6.952;2023-02-28T00:33:20;1.10;97.00
14755;DHT22;7469;50.906;6.952;2023-02-28T00:35:48;1.00;97.30
14755;DHT22;7469;50.906;6.952;2023-02-28T00:38:16;1.00;97.40
14755;DHT22;7469;50.906;6.952;2023-02-28T00:40:46;1.00;97.60
14755;DHT22;7469;50.906;6.952;2023-02-28T00:43:13;1.00;97.80
14755;DHT22;7469;50.906;6.952;2023-02-28T00:45:41;1.00;98.00
14755;DHT22;7469;50.906;6.952;2023-02-28T00:48:09;1.00;98.10
14755;DHT22;7469;50.906;6.952;2023-02-28T00:50:37;1.00;98.20
14755;DHT22;7469;50.906;6.952;2023-02-28T00:53:05;1.00;98.30
14755;DHT22;7469;50.906;6.952;2023-02-28T00:55:33;0.90;98.30
14755;DHT22;7469;50.906;6.952;2023-02-28T00:58:02;0.90;98.50
14755;DHT22;7469;50.906;6.952;2023-02-28T01:00:30;0.90;98.80
14755;DHT22;7469;50.906;6.952;2023-02-28T01:02:58;0.90;98.90
14755;DHT22;7469;50.906;6.952;2023-02-28T01:05:26;0.90;99.00
14755;DHT22;7469;50.906;6.952;2023-02-28T01:07:54;0.80;99.10
14755;DHT22;7469;50.906;6.952;2023-02-28T01:10:22;0.80;99.30
14755;DHT22;7469;50.906;6.952;2023-02-28T01:12:50;0.80;99.50
14755;DHT22;7469;50.906;6.952;2023-02-28T01:15:20;0.80;99.60
14755;DHT22;7469;50.906;6.952;2023-02-28T01:17:48;0.80;99.80
14755;DHT22;7469;50.906;6.952;2023-02-28T01:20:16;0.80;99.90
14755;DHT22;7469;50.906;6.952;2023-02-28T01:22:44;0.80;99.90
14755;DHT22;7469;50.906;6.952;2023-02-28T01:25:12;0.80;99.90
14755;DHT22;7469;50.906;6.952;2023-02-28T01:27:40;0.70;99.90
14755;DHT22;7469;50.906;6.952;2023-02-28T01:30:09;0.70;99.90
14755;DHT22;7469;50.906;6.952;2023-02-28T01:32:38;0.70;99.90
14755;DHT22;7469;50.906;6.952;2023-02-28T01:35:07;0.70;99.90
14755;DHT22;7469;50.906;6.952;2023-02-28T01:37:35;0.70;99.90
14755;DHT22;7469;50.906;6.952;2023-02-28T01:40:03;0.70;99.90
14755;DHT22;7469;50.906;6.952;2023-02-28T01:42:31;0.70;99.90
14755;DHT22;7469;50.906;6.952;2023-02-28T01:45:04;0.60;99.90
14755;DHT22;7469;50.906;6.952;2023-02-28T01:47:38;0.60;99.90
14755;DHT22;7469;50.906;6.952;2023-02-28T01:50:11;0.60;99.90
14755;DHT22;7469;50.906;6.952;2023-02-28T01:52:41;0.60;99.90
14755;DHT22;7469;50.906;6.952;2023-02-28T01:55:11;0.60;99.90
14755;DHT22;7469;50.906;6.952;2023-02-28T01:57:43;0.50;99.90
14755;DHT22;7469;50.906;6.952;2023-02-28T02:00:15;0.50;99.90
14755;DHT22;7469;50.906;6.952;2023-02-28T02:02:47;0.50;99.90
14755;DHT22;7469;50.906;6.952;2023-02-28T02:05:18;0.50;99.90
14755;DHT22;7469;50.906;6.952;2023-02-28T02:07:49;0.50;99.90
14755;DHT22;7469;50.906;6.952;2023-02-28T02:10:20;0.50;99.90
14755;DHT22;7469;50.906;6.952;2023-02-28T02:13:02;0.40;99.90
14755;DHT22;7469;50.906;6.952;2023-02-28T02:15:38;0.40;99.90
14755;DHT22;7469;50.906;6.952;2023-02-28T02:18:14;0.40;99.90
14755;DHT22;7469;50.906;6.952;2023-02-28T02:21:11;0.40;99.90
14755;DHT22;7469;50.906;6.952;2023-02-28T02:24:05;0.40;99.90
14755;DHT22;7469;50.906;6.952;2023-02-28T02:26:55;0.40;99.90
14755;DHT22;7469;50.906;6.952;2023-02-28T02:29:45;0.30;99.90
14755;DHT22;7469;50.906;6.952;2023-02-28T02:35:40;0.30;99.90
14755;DHT22;7469;50.906;6.952;2023-02-28T02:38:17;0.30;99.90
14755;DHT22;7469;50.906;6.952;2023-02-28T02:40:52;0.30;99.90
14755;DHT22;7469;50.906;6.952;2023-02-28T02:43:26;0.30;99.90
14755;DHT22;7469;50.906;6.952;2023-02-28T02:45:59;0.20;99.90
14755;DHT22;7469;50.906;6.952;2023-02-28T02:48:30;0.20;99.90
14755;DHT22;7469;50.906;6.952;2023-02-28T02:51:05;0.20;99.90
14755;DHT22;7469;50.906;6.952;2023-02-28T02:53:42;0.20;99.90
14755;DHT22;7469;50.906;6.952;2023-02-28T02:56:12;0.20;99.90
14755;DHT22;7469;50.906;6.952;2023-02-28T02:58:42;0.20;99.90
14755;DHT22;7469;50.906;6.952;2023-02-28T03:01:18;0.20;99.90
14755;DHT22;7469;50.906;6.952;2023-02-28T03:03:56;0.20;99.90
14755;DHT22;7469;50.906;6.952;2023-02-28T03:06:26;0.10;99.90
14755;DHT22;7469;50.906;6.952;2023-02-28T03:08:54;0.10;99.90
14755;DHT22;7469;50.906;6.952;2023-02-28T03:11:22;0.10;99.90
14755;DHT22;7469;50.906;6.952;2023-02-28T03:17:18;0.10;99.90
14755;DHT22;7469;50.906;6.952;2023-02-28T03:19:55;0.10;99.90
14755;DHT22;7469;50.906;6.952;2023-02-28T03:22:46;0.10;99.90
14755;DHT22;7469;50.906;6.952;2023-02-28T03:25:25;0.10;99.90
14755;DHT22;7469;50.906;6.952;2023-02-28T03:28:01;0.10;99.90
14755;DHT22;7469;50.906;6.952;2023-02-28T03:30:36;0.10;99.90
14755;DHT22;7469;50.906;6.952;2023-02-28T03:33:08;0.00;99.90
14755;DHT22;7469;50.906;6.952;2023-02-28T03:35:41;0.00;99.90
14755;DHT22;7469;50.906;6.952;2023-02-28T03:38:16;0.00;99.90
14755;DHT22;7469;50.906;6.952;2023-02-28T03:40:48;0.00;99.90
14755;DHT22;7469;50.906;6.952;2023-02-28T03:43:22;0.00;99.90
14755;DHT22;7469;50.906;6.952;2023-02-28T03:45:52;0.00;99.90
14755;DHT22;7469;50.906;6.952;2023-02-28T03:48:25;0.00;99.90
14755;DHT22;7469;50.906;6.952;2023-02-28T03:50:55;0.00;99.90
14755;DHT22;7469;50.906;6.952;2023-02-28T03:53:29;0.00;99.90
14755;DHT22;7469;50.906;6.952;2023-02-28T03:56:01;-0.10;99.90
14755;DHT22;7469;50.906;6.952;2023-02-28T03:58:37;-0.10;99.90
14755;DHT22;7469;50.906;6.952;2023-02-28T04:01:09;-0.10;99.90
14755;DHT22;7469;50.906;6.952;2023-02-28T04:03:39;0.00;99.90
14755;DHT22;7469;50.906;6.952;2023-02-28T04:06:12;-0.10;99.90
14755;DHT22;7469;50.906;6.952;2023-02-28T04:08:43;-0.10;99.90
14755;DHT22;7469;50.906;6.952;2023-02-28T04:11:18;-0.10;99.90
14755;DHT22;7469;50.906;6.952;2023-02-28T04:13:47;-0.10;99.90
14755;DHT22;7469;50.906;6.952;2023-02-28T04:16:15;-0.10;99.90
14755;DHT22;7469;50.906;6.952;2023-02-28T04:19:01;-0.10;99.90
14755;DHT22;7469;50.906;6.952;2023-02-28T04:21:33;-0.10;99.90
14755;DHT22;7469;50.906;6.952;2023-02-28T04:24:03;-0.10;99.90
14755;DHT22;7469;50.906;6.952;2023-02-28T04:26:33;-0.10;99.90
14755;DHT22;7469;50.906;6.952;2023-02-28T04:29:03;-0.20;99.90
14755;DHT22;7469;50.906;6.952;2023-02-28T04:31:31;-0.20;99.90
14755;DHT22;7469;50.906;6.952;2023-02-28T04:33:59;-0.20;99.90
14755;DHT22;7469;50.906;6.952;2023-02-28T04:36:28;-0.20;99.90
14755;DHT22;7469;50.906;6.952;2023-02-28T04:38:56;-0.20;99.90
14755;DHT22;7469;50.906;6.952;2023-02-28T04:41:25;-0.20;99.90
14755;DHT22;7469;50.906;6.952;2023-02-28T04:43:57;-0.20;99.90
14755;DHT22;7469;50.906;6.952;2023-02-28T04:46:25;-0.20;99.90
14755;DHT22;7469;50.906;6.952;2023-02-28T04:48:53;-0.30;99.90
14755;DHT22;7469;50.906;6.952;2023-02-28T04:51:22;-0.30;99.90
14755;DHT22;7469;50.906;6.952;2023-02-28T04:53:49;-0.30;99.90
14755;DHT22;7469;50.906;6.952;2023-02-28T04:56:18;-0.30;99.90
14755;DHT22;7469;50.906;6.952;2023-02-28T04:58:47;-0.30;99.90
14755;DHT22;7469;50.906;6.952;2023-02-28T05:01:19;-0.30;99.90
14755;DHT22;7469;50.906;6.952;2023-02-28T05:03:48;-0.30;99.90
14755;DHT22;7469;50.906;6.952;2023-02-28T05:06:17;-0.30;99.90
14755;DHT22;7469;50.906;6.952;2023-02-28T05:08:47;-0.30;99.90
14755;DHT22;7469;50.906;6.952;2023-02-28T05:11:17;-0.30;99.90
14755;DHT22;7469;50.906;6.952;2023-02-28T05:13:47;-0.30;99.90
14755;DHT22;7469;50.906;6.952;2023-02-28T05:16:15;-0.30;99.90
14755;DHT22;7469;50.906;6.952;2023-02-28T05:18:44;-0.40;99.90
14755;DHT22;7469;50.906;6.952;2023-02-28T05:21:25;-0.40;99.90
14755;DHT22;7469;50.906;6.952;2023-02-28T05:23:54;-0.40;99.90
14755;DHT22;7469;50.906;6.952;2023-02-28T05:26:23;-0.40;99.90
14755;DHT22;7469;50.906;6.952;2023-02-28T05:28:53;-0.40;99.90
14755;DHT22;7469;50.906;6.952;2023-02-28T05:31:21;-0.40;99.90
14755;DHT22;7469;50.906;6.952;2023-02-28T05:33:50;-0.50;99.90
14755;DHT22;7469;50.906;6.952;2023-02-28T05:36:19;-0.50;99.90
14755;DHT22;7469;50.906;6.952;2023-02-28T05:38:47;-0.50;99.90
14755;DHT22;7469;50.906;6.952;2023-02-28T05:41:16;-0.50;99.90
14755;DHT22;7469;50.906;6.952;2023-02-28T05:43:46;-0.50;99.90
14755;DHT22;7469;50.906;6.952;2023-02-28T05:46:16;-0.50;99.90
14755;DHT22;7469;50.906;6.952;2023-02-28T05:48:46;-0.50;99.90
14755;DHT22;7469;50.906;6.952;2023-02-28T05:51:15;-0.50;99.90
14755;DHT22;7469;50.906;6.952;2023-02-28T05:53:43;-0.50;99.90
14755;DHT22;7469;50.906;6.952;2023-02-28T05:56:12;-0.50;99.90
14755;DHT22;7469;50.906;6.952;2023-02-28T05:58:40;-0.50;99.90
14755;DHT22;7469;50.906;6.952;2023-02-28T06:01:24;-0.50;99.90
14755;DHT22;7469;50.906;6.952;2023-02-28T06:03:53;-0.50;99.90
14755;DHT22;7469;50.906;6.952;2023-02-28T06:06:21;-0.50;99.90
14755;DHT22;7469;50.906;6.952;2023-02-28T06:08:48;-0.50;99.90
14755;DHT22;7469;50.906;6.952;2023-02-28T06:11:16;-0.50;99.90
14755;DHT22;7469;50.906;6.952;2023-02-28T06:13:46;-0.50;99.90
14755;DHT22;7469;50.906;6.952;2023-02-28T06:16:14;-0.50;99.90
14755;DHT22;7469;50.906;6.952;2023-02-28T06:18:43;-0.50;99.90
14755;DHT22;7469;50.906;6.952;2023-02-28T06:21:13;-0.40;99.90
14755;DHT22;7469;50.906;6.952;2023-02-28T06:23:41;-0.40;99.90
14755;DHT22;7469;50.906;6.952;2023-02-28T06:26:09;-0.40;99.90
14755;DHT22;7469;50.906;6.952;2023-02-28T06:28:37;-0.40;99.90
14755;DHT22;7469;50.906;6.952;2023-02-28T06:31:07;-0.30;99.90
14755;DHT22;7469;50.906;6.952;2023-02-28T06:33:36;-0.30;99.90
14755;DHT22;7469;50.906;6.952;2023-02-28T06:36:06;-0.30;99.90
14755;DHT22;7469;50.906;6.952;2023-02-28T06:38:35;-0.30;99.90
14755;DHT22;7469;50.906;6.952;2023-02-28T06:41:04;-0.30;99.90
14755;DHT22;7469;50.906;6.952;2023-02-28T06:43:34;-0.30;99.90
14755;DHT22;7469;50.906;6.952;2023-02-28T06:46:05;-0.20;99.90
14755;DHT22;7469;50.906;6.952;2023-02-28T06:48:34;-0.20;99.90
14755;DHT22;7469;50.906;6.952;2023-02-28T06:51:06;-0.20;99.90
14755;DHT22;7469;50.906;6.952;2023-02-28T06:53:35;-0.20;99.90
14755;DHT22;7469;50.906;6.952;2023-02-28T06:56:04;-0.20;99.90
14755;DHT22;7469;50.906;6.952;2023-02-28T06:58:34;-0.10;99.90
14755;DHT22;7469;50.906;6.952;2023-02-28T07:01:02;-0.10;99.90
14755;DHT22;7469;50.906;6.952;2023-02-28T07:03:30;-0.10;99.90
14755;DHT22;7469;50.906;6.952;2023-02-28T07:06:00;-0.10;99.90
14755;DHT22;7469;50.906;6.952;2023-02-28T07:08:31;0.00;99.90
14755;DHT22;7469;50.906;6.952;2023-02-28T07:10:59;0.00;99.90
14755;DHT22;7469;50.906;6.952;2023-02-28T07:13:27;0.00;99.90
14755;DHT22;7469;50.906;6.952;2023-02-28T07:15:56;0.10;99.90
14755;DHT22;7469;50.906;6.952;2023-02-28T07:18:25;0.10;99.90
14755;DHT22;7469;50.906;6.952;2023-02-28T07:20:53;0.10;99.90
14755;DHT22;7469;50.906;6.952;2023-02-28T07:23:21;0.10;99.90
14755;DHT22;7469;50.906;6.952;2023-02-28T07:25:51;0.20;99.90
14755;DHT22;7469;50.906;6.952;2023-02-28T07:28:19;0.20;99.90
14755;DHT22;7469;50.906;6.952;2023-02-28T07:30:47;0.30;99.90
14755;DHT22;7469;50.906;6.952;2023-02-28T07:33:15;0.30;99.90
14755;DHT22;7469;50.906;6.952;2023-02-28T07:35:43;0.40;99.90
14755;DHT22;7469;50.906;6.952;2023-02-28T07:38:11;0.40;99.90
14755;DHT22;7469;50.906;6.952;2023-02-28T07:40:40;0.40;99.90
14755;DHT22;7469;50.906;6.952;2023-02-28T07:43:09;0.50;99.90
14755;DHT22;7469;50.906;6.952;2023-02-28T07:45:37;0.50;99.90
14755;DHT22;7469;50.906;6.952;2023-02-28T07:48:05;0.60;99.90
14755;DHT22;7469;50.906;6.952;2023-02-28T07:50:33;0.70;99.90
14755;DHT22;7469;50.906;6.952;2023-02-28T07:53:01;0.70;99.90
14755;DHT22;7469;50.906;6.952;2023-02-28T07:55:29;0.80;99.90
14755;DHT22;7469;50.906;6.952;2023-02-28T07:57:57;0.80;99.60
14755;DHT22;7469;50.906;6.952;2023-02-28T08:00:27;0.90;99.30
14755;DHT22;7469;50.906;6.952;2023-02-28T08:02:56;0.90;99.00
14755;DHT22;7469;50.906;6.952;2023-02-28T08:05:24;1.00;98.80
14755;DHT22;7469;50.906;6.952;2023-02-28T08:07:52;1.10;98.60
14755;DHT22;7469;50.906;6.952;2023-02-28T08:10:21;1.10;98.10
14755;DHT22;7469;50.906;6.952;2023-02-28T08:12:49;1.20;97.80
14755;DHT22;7469;50.906;6.952;2023-02-28T08:15:18;1.30;97.60
14755;DHT22;7469;50.906;6.952;2023-02-28T08:17:47;1.40;97.50
14755;DHT22;7469;50.906;6.952;2023-02-28T08:20:15;1.50;97.00
14755;DHT22;7469;50.906;6.952;2023-02-28T08:22:43;1.50;96.80
14755;DHT22;7469;50.906;6.952;2023-02-28T08:25:11;1.60;96.60
14755;DHT22;7469;50.906;6.952;2023-02-28T08:27:40;1.70;96.40
14755;DHT22;7469;50.906;6.952;2023-02-28T08:30:10;1.80;96.00
14755;DHT22;7469;50.906;6.952;2023-02-28T08:32:38;1.80;95.70
14755;DHT22;7469;50.906;6.952;2023-02-28T08:35:09;2.00;95.50
14755;DHT22;7469;50.906;6.952;2023-02-28T08:37:37;2.10;95.20
14755;DHT22;7469;50.906;6.952;2023-02-28T08:40:06;2.10;94.70
14755;DHT22;7469;50.906;6.952;2023-02-28T08:42:34;2.20;94.30
14755;DHT22;7469;50.906;6.952;2023-02-28T08:45:03;2.30;94.00
14755;DHT22;7469;50.906;6.952;2023-02-28T08:47:31;2.40;93.20
14755;DHT22;7469;50.906;6.952;2023-02-28T08:49:59;2.50;92.70
14755;DHT22;7469;50.906;6.952;2023-02-28T08:52:29;2.60;92.20
14755;DHT22;7469;50.906;6.952;2023-02-28T08:54:57;2.70;91.80
14755;DHT22;7469;50.906;6.952;2023-02-28T08:57:25;2.80;91.20
14755;DHT22;7469;50.906;6.952;2023-02-28T08:59:54;2.90;90.90
14755;DHT22;7469;50.906;6.952;2023-02-28T09:02:22;3.00;90.60
14755;DHT22;7469;50.906;6.952;2023-02-28T09:04:50;3.20;90.20
14755;DHT22;7469;50.906;6.952;2023-02-28T09:07:18;3.30;88.60
14755;DHT22;7469;50.906;6.952;2023-02-28T09:09:47;3.50;87.40
14755;DHT22;7469;50.906;6.952;2023-02-28T09:12:25;3.70;86.50
14755;DHT22;7469;50.906;6.952;2023-02-28T09:14:54;3.90;85.30
14755;DHT22;7469;50.906;6.952;2023-02-28T09:17:21;4.20;84.40
14755;DHT22;7469;50.906;6.952;2023-02-28T09:19:56;4.60;84.10
14755;DHT22;7469;50.906;6.952;2023-02-28T09:22:24;5.10;78.50
14755;DHT22;7469;50.906;6.952;2023-02-28T09:24:54;5.70;77.10
14755;DHT22;7469;50.906;6.952;2023-02-28T09:27:22;6.30;75.30
14755;DHT22;7469;50.906;6.952;2023-02-28T09:29:50;7.20;73.50
14755;DHT22;7469;50.906;6.952;2023-02-28T09:32:18;8.20;70.60
14755;DHT22;7469;50.906;6.952;2023-02-28T09:34:46;9.50;66.80
14755;DHT22;7469;50.906;6.952;2023-02-28T09:37:14;10.90;60.60
14755;DHT22;7469;50.906;6.952;2023-02-28T09:39:42;12.00;55.10
14755;DHT22;7469;50.906;6.952;2023-02-28T09:42:21;13.40;48.50
14755;DHT22;7469;50.906;6.952;2023-02-28T09:44:51;14.80;42.90
14755;DHT22;7469;50.906;6.952;2023-02-28T09:47:26;16.10;35.80
14755;DHT22;7469;50.906;6.952;2023-02-28T09:49:57;17.20;30.80
14755;DHT22;7469;50.906;6.952;2023-02-28T09:52:29;17.90;27.10
14755;DHT22;7469;50.906;6.952;2023-02-28T09:55:01;18.70;26.00
14755;DHT22;7469;50.906;6.952;2023-02-28T09:57:35;19.20;24.40
14755;DHT22;7469;50.906;6.952;2023-02-28T10:00:13;19.80;22.30
14755;DHT22;7469;50.906;6.952;2023-02-28T10:03:06;20.20;21.10
14755;DHT22;7469;50.906;6.952;2023-02-28T10:05:39;20.70;20.00
14755;DHT22;7469;50.906;6.952;2023-02-28T10:08:14;20.90;18.70
14755;DHT22;7469;50.906;6.952;2023-02-28T10:10:45;21.10;18.20
14755;DHT22;7469;50.906;6.952;2023-02-28T10:13:21;21.40;17.30
14755;DHT22;7469;50.906;6.952;2023-02-28T10:15:53;21.40;16.80
14755;DHT22;7469;50.906;6.952;2023-02-28T10:18:25;21.50;16.60
14755;DHT22;7469;50.906;6.952;2023-02-28T10:20:55;21.90;16.50
14755;DHT22;7469;50.906;6.952;2023-02-28T10:23:27;22.30;15.90
14755;DHT22;7469;50.906;6.952;2023-02-28T10:25:59;22.60;15.20
14755;DHT22;7469;50.906;6.952;2023-02-28T10:28:31;23.00;14.80
14755;DHT22;7469;50.906;6.952;2023-02-28T10:30:59;23.20;14.00
14755;DHT22;7469;50.906;6.952;2023-02-28T10:33:30;23.50;13.30
14755;DHT22;7469;50.906;6.952;2023-02-28T10:35:59;23.70;12.80
14755;DHT22;7469;50.906;6.952;2023-02-28T10:38:31;23.80;12.10
14755;DHT22;7469;50.906;6.952;2023-02-28T10:41:07;23.70;11.60
14755;DHT22;7469;50.906;6.952;2023-02-28T10:43:38;23.70;11.60
14755;DHT22;7469;50.906;6.952;2023-02-28T10:46:13;23.60;11.00
14755;DHT22;7469;50.906;6.952;2023-02-28T10:49:02;23.00;11.10
14755;DHT22;7469;50.906;6.952;2023-02-28T10:51:36;22.80;11.50
14755;DHT22;7469;50.906;6.952;2023-02-28T10:54:05;22.90;11.40
14755;DHT22;7469;50.906;6.952;2023-02-28T10:56:33;23.10;11.20
14755;DHT22;7469;50.906;6.952;2023-02-28T10:59:26;23.30;10.90
14755;DHT22;7469;50.906;6.952;2023-02-28T11:01:55;23.20;9.80
14755;DHT22;7469;50.906;6.952;2023-02-28T11:04:34;23.10;10.10
14755;DHT22;7469;50.906;6.952;2023-02-28T11:07:06;23.00;10.20
14755;DHT22;7469;50.906;6.952;2023-02-28T11:09:36;22.50;10.00
14755;DHT22;7469;50.906;6.952;2023-02-28T11:12:07;22.20;10.20
14755;DHT22;7469;50.906;6.952;2023-02-28T11:14:47;21.80;10.10
14755;DHT22;7469;50.906;6.952;2023-02-28T11:17:20;21.70;10.50
14755;DHT22;7469;50.906;6.952;2023-02-28T11:19:53;21.90;10.50
14755;DHT22;7469;50.906;6.952;2023-02-28T11:22:25;22.10;10.30
14755;DHT22;7469;50.906;6.952;2023-02-28T11:24:57;22.30;10.10
14755;DHT22;7469;50.906;6.952;2023-02-28T11:27:45;22.60;9.70
14755;DHT22;7469;50.906;6.952;2023-02-28T11:30:27;21.60;9.60
14755;DHT22;7469;50.906;6.952;2023-02-28T11:32:55;21.20;10.40
14755;DHT22;7469;50.906;6.952;2023-02-28T11:35:27;21.30;10.40
14755;DHT22;7469;50.906;6.952;2023-02-28T11:37:57;21.80;10.30
14755;DHT22;7469;50.906;6.952;2023-02-28T11:40:31;22.30;10.00
14755;DHT22;7469;50.906;6.952;2023-02-28T11:43:12;22.50;9.80
14755;DHT22;7469;50.906;6.952;2023-02-28T11:45:58;22.70;9.90
14755;DHT22;7469;50.906;6.952;2023-02-28T11:48:36;22.70;9.30
14755;DHT22;7469;50.906;6.952;2023-02-28T11:51:15;22.60;9.20
14755;DHT22;7469;50.906;6.952;2023-02-28T11:56:45;22.00;9.60
14755;DHT22;7469;50.906;6.952;2023-02-28T11:59:35;21.50;10.00
14755;DHT22;7469;50.906;6.952;2023-02-28T12:02:23;21.00;10.40
14755;DHT22;7469;50.906;6.952;2023-02-28T12:05:16;20.10;10.50
14755;DHT22;7469;50.906;6.952;2023-02-28T12:07:55;18.90;10.70
14755;DHT22;7469;50.906;6.952;2023-02-28T12:10:31;17.80;11.80
14755;DHT22;7469;50.906;6.952;2023-02-28T12:13:10;16.70;12.50
14755;DHT22;7469;50.906;6.952;2023-02-28T12:15:53;15.60;13.50
14755;DHT22;7469;50.906;6.952;2023-02-28T12:18:53;14.50;14.30
14755;DHT22;7469;50.906;6.952;2023-02-28T12:21:32;13.50;15.30
14755;DHT22;7469;50.906;6.952;2023-02-28T12:27:09;11.90;17.10
14755;DHT22;7469;50.906;6.952;2023-02-28T12:29:46;11.30;17.70
14755;DHT22;7469;50.906;6.952;2023-02-28T12:32:20;10.80;18.10
14755;DHT22;7469;50.906;6.952;2023-02-28T12:34:54;10.30;18.70
14755;DHT22;7469;50.906;6.952;2023-02-28T12:37:29;9.90;19.10
14755;DHT22;7469;50.906;6.952;2023-02-28T12:40:02;9.60;19.40
14755;DHT22;7469;50.906;6.952;2023-02-28T12:42:35;9.30;19.40
14755;DHT22;7469;50.906;6.952;2023-02-28T12:45:10;9.00;19.90
14755;DHT22;7469;50.906;6.952;2023-02-28T12:47:40;8.70;20.40
14755;DHT22;7469;50.906;6.952;2023-02-28T12:50:12;8.60;20.80
14755;DHT22;7469;50.906;6.952;2023-02-28T12:52:46;8.50;21.00
14755;DHT22;7469;50.906;6.952;2023-02-28T12:55:19;8.30;21.30
14755;DHT22;7469;50.906;6.952;2023-02-28T12:57:55;8.20;21.60
14755;DHT22;7469;50.906;6.952;2023-02-28T13:00:31;8.20;21.90
14755;DHT22;7469;50.906;6.952;2023-02-28T13:03:24;8.20;22.60
14755;DHT22;7469;50.906;6.952;2023-02-28T13:06:08;8.20;22.20
14755;DHT22;7469;50.906;6.952;2023-02-28T13:08:52;8.10;22.40
14755;DHT22;7469;50.906;6.952;2023-02-28T13:11:26;8.10;23.00
14755;DHT22;7469;50.906;6.952;2023-02-28T13:14:00;8.10;22.70
14755;DHT22;7469;50.906;6.952;2023-02-28T13:19:32;8.10;23.10
14755;DHT22;7469;50.906;6.952;2023-02-28T13:22:03;8.20;23.10
14755;DHT22;7469;50.906;6.952;2023-02-28T13:24:45;8.10;23.00
14755;DHT22;7469;50.906;6.952;2023-02-28T13:27:32;8.10;23.10
14755;DHT22;7469;50.906;6.952;2023-02-28T13:30:01;8.10;23.30
14755;DHT22;7469;50.906;6.952;2023-02-28T13:32:36;8.10;23.40
14755;DHT22;7469;50.906;6.952;2023-02-28T13:35:35;8.10;23.60
14755;DHT22;7469;50.906;6.952;2023-02-28T13:38:24;8.10;23.60
14755;DHT22;7469;50.906;6.952;2023-02-28T13:40:52;8.10;23.40
14755;DHT22;7469;50.906;6.952;2023-02-28T13:43:20;8.10;23.40
14755;DHT22;7469;50.906;6.952;2023-02-28T13:46:11;8.20;23.60
14755;DHT22;7469;50.906;6.952;2023-02-28T13:48:41;8.30;23.60
14755;DHT22;7469;50.906;6.952;2023-02-28T13:51:40;8.30;23.60
14755;DHT22;7469;50.906;6.952;2023-02-28T13:54:28;8.50;23.80
14755;DHT22;7469;50.906;6.952;2023-02-28T13:57:11;8.60;23.70
14755;DHT22;7469;50.906;6.952;2023-02-28T13:59:50;8.60;23.50
14755;DHT22;7469;50.906;6.952;2023-02-28T14:02:46;8.70;23.30
14755;DHT22;7469;50.906;6.952;2023-02-28T14:05:18;8.80;23.10
14755;DHT22;7469;50.906;6.952;2023-02-28T14:07:50;8.90;22.80
14755;DHT22;7469;50.906;6.952;2023-02-28T14:10:27;8.90;22.80
14755;DHT22;7469;50.906;6.952;2023-02-28T14:13:00;9.00;22.90
14755;DHT22;7469;50.906;6.952;2023-02-28T14:15:47;9.10;22.90
14755;DHT22;7469;50.906;6.952;2023-02-28T14:18:23;9.10;22.80
14755;DHT22;7469;50.906;6.952;2023-02-28T14:20:57;9.10;22.50
14755;DHT22;7469;50.906;6.952;2023-02-28T14:23:35;9.20;22.70
14755;DHT22;7469;50.906;6.952;2023-02-28T14:26:17;9.20;22.70
14755;DHT22;7469;50.906;6.952;2023-02-28T14:29:07;9.20;22.70
14755;DHT22;7469;50.906;6.952;2023-02-28T14:31:45;9.20;22.80
14755;DHT22;7469;50.906;6.952;2023-02-28T14:34:36;9.30;22.90
14755;DHT22;7469;50.906;6.952;2023-02-28T14:37:13;9.40;23.10
14755;DHT22;7469;50.906;6.952;2023-02-28T14:39:43;9.50;23.20
14755;DHT22;7469;50.906;6.952;2023-02-28T14:42:33;9.60;23.00
14755;DHT22;7469;50.906;6.952;2023-02-28T14:45:02;9.60;22.90
14755;DHT22;7469;50.906;6.952;2023-02-28T14:47:32;9.60;22.80
14755;DHT22;7469;50.906;6.952;2023-02-28T14:50:03;9.60;22.90
14755;DHT22;7469;50.906;6.952;2023-02-28T14:52:32;9.60;22.80
14755;DHT22;7469;50.906;6.952;2023-02-28T14:55:03;9.60;22.90
14755;DHT22;7469;50.906;6.952;2023-02-28T14:57:38;9.50;22.80
14755;DHT22;7469;50.906;6.952;2023-02-28T15:00:13;9.40;23.00
14755;DHT22;7469;50.906;6.952;2023-02-28T15:02:42;9.40;23.20
14755;DHT22;7469;50.906;6.952;2023-02-28T15:05:21;9.40;23.20
14755;DHT22;7469;50.906;6.952;2023-02-28T15:08:01;9.30;23.30
14755;DHT22;7469;50.906;6.952;2023-02-28T15:10:31;9.30;23.80
14755;DHT22;7469;50.906;6.952;2023-02-28T15:13:02;9.30;23.30
14755;DHT22;7469;50.906;6.952;2023-02-28T15:15:41;9.30;24.00
14755;DHT22;7469;50.906;6.952;2023-02-28T15:18:32;9.20;23.60
14755;DHT22;7469;50.906;6.952;2023-02-28T15:21:06;9.20;23.50
14755;DHT22;7469;50.906;6.952;2023-02-28T15:23:36;9.10;23.60
14755;DHT22;7469;50.906;6.952;2023-02-28T15:26:06;9.00;23.60
14755;DHT22;7469;50.906;6.952;2023-02-28T15:28:36;8.90;23.90
14755;DHT22;7469;50.906;6.952;2023-02-28T15:31:19;8.90;23.90
14755;DHT22;7469;50.906;6.952;2023-02-28T15:33:53;8.90;24.10
14755;DHT22;7469;50.906;6.952;2023-02-28T15:36:25;8.90;24.20
14755;DHT22;7469;50.906;6.952;2023-02-28T15:38:54;8.90;24.00
14755;DHT22;7469;50.906;6.952;2023-02-28T15:41:37;8.90;23.80
14755;DHT22;7469;50.906;6.952;2023-02-28T15:44:22;8.80;23.80
14755;DHT22;7469;50.906;6.952;2023-02-28T15:46:57;8.70;23.90
14755;DHT22;7469;50.906;6.952;2023-02-28T15:49:26;8.60;24.00
14755;DHT22;7469;50.906;6.952;2023-02-28T15:51:56;8.60;24.20
14755;DHT22;7469;50.906;6.952;2023-02-28T15:54:28;8.50;24.30
14755;DHT22;7469;50.906;6.952;2023-02-28T15:56:58;8.50;24.40
14755;DHT22;7469;50.906;6.952;2023-02-28T15:59:30;8.50;24.60
14755;DHT22;7469;50.906;6.952;2023-02-28T16:02:15;8.40;24.50
14755;DHT22;7469;50.906;6.952;2023-02-28T16:05:12;8.40;24.60
14755;DHT22;7469;50.906;6.952;2023-02-28T16:07:44;8.30;24.70
14755;DHT22;7469;50.906;6.952;2023-02-28T16:10:14;8.20;24.90
14755;DHT22;7469;50.906;6.952;2023-02-28T16:12:42;8.20;25.10
14755;DHT22;7469;50.906;6.952;2023-02-28T16:15:19;8.10;25.20
14755;DHT22;7469;50.906;6.952;2023-02-28T16:17:48;8.00;25.40
14755;DHT22;7469;50.906;6.952;2023-02-28T16:20:18;8.00;25.50
14755;DHT22;7469;50.906;6.952;2023-02-28T16:22:46;7.90;25.50
14755;DHT22;7469;50.906;6.952;2023-02-28T16:25:15;7.80;25.60
14755;DHT22;7469;50.906;6.952;2023-02-28T16:27:44;7.60;25.70
14755;DHT22;7469;50.906;6.952;2023-02-28T16:30:21;7.50;25.90
14755;DHT22;7469;50.906;6.952;2023-02-28T16:32:52;7.40;26.10
14755;DHT22;7469;50.906;6.952;2023-02-28T16:35:21;7.30;26.30
14755;DHT22;7469;50.906;6.952;2023-02-28T16:37:50;7.20;26.40
14755;DHT22;7469;50.906;6.952;2023-02-28T16:40:20;7.10;26.60
14755;DHT22;7469;50.906;6.952;2023-02-28T16:42:51;7.00;26.80
14755;DHT22;7469;50.906;6.952;2023-02-28T16:45:24;6.90;26.90
14755;DHT22;7469;50.906;6.952;2023-02-28T16:47:53;6.80;27.00